sensor_id;sensor_type;location;lat;lon;timestamp;temperature;humidity
17154;DHT22;8692;52.164;7.558;2023-09-08T00:01:41;20.60;99.90
17154;DHT22;8692;52.164;7.558;2023-09-08T00:04:09;20.60;99.90
17154;DHT22;8692;52.164;7.558;2023-09-08T00:06:38;20.60;99.90
17154;DHT22;8692;52.164;7.558;2023-09-08T00:09:06;20.50;99.90
17154;DHT22;8692;52.164;7.558;2023-09-08T00:11:36;20.50;99.90
17154;DHT22;8692;52.164;7.558;2023-09-08T00:14:04;20.40;99.90
17154;DHT22;8692;52.164;7.558;2023-09-08T00:16:32;20.40;99.90
17154;DHT22;8692;52.164;7.558;2023-09-08T00:19:00;20.30;99.90
17154;DHT22;8692;52.164;7.558;2023-09-08T00:21:28;20.30;99.90
17154;DHT22;8692;52.164;7.558;2023-09-08T00:23:56;20.30;99.90
17154;DHT22;8692;52.164;7.558;2023-09-08T00:26:24;20.20;99.90
17154;DHT22;8692;52.164;7.558;2023-09-08T00:28:53;20.20;99.90
17154;DHT22;8692;52.164;7.558;2023-09-08T00:31:22;20.10;99.90
17154;DHT22;8692;52.164;7.558;2023-09-08T00:33:49;20.10;99.90
17154;DHT22;8692;52.164;7.558;2023-09-08T00:36:18;20.10;99.90
17154;DHT22;8692;52.164;7.558;2023-09-08T00:38:46;20.00;99.90
17154;DHT22;8692;52.164;7.558;2023-09-08T00:41:14;20.00;99.90
17154;DHT22;8692;52.164;7.558;2023-09-08T00:43:42;20.00;99.90
17154;DHT22;8692;52.164;7.558;2023-09-08T00:46:11;19.90;99.90
17154;DHT22;8692;52.164;7.558;2023-09-08T00:48:41;19.90;99.90
17154;DHT22;8692;52.164;7.558;2023-09-08T00:51:09;19.90;99.90
17154;DHT22;8692;52.164;7.558;2023-09-08T00:53:38;19.80;99.90
17154;DHT22;8692;52.164;7.558;2023-09-08T00:56:07;19.80;99.90
17154;DHT22;8692;52.164;7.558;2023-09-08T00:58:36;19.80;99.90
17154;DHT22;8692;52.164;7.558;2023-09-08T01:01:04;19.80;99.90
17154;DHT22;8692;52.164;7.558;2023-09-08T01:03:34;19.70;99.90
17154;DHT22;8692;52.164;7.558;2023-09-08T01:06:03;19.80;99.90
17154;DHT22;8692;52.164;7.558;2023-09-08T01:08:31;19.70;99.90
17154;DHT22;8692;52.164;7.558;2023-09-08T01:11:00;19.70;99.90
17154;DHT22;8692;52.164;7.558;2023-09-08T01:13:28;19.70;99.90
17154;DHT22;8692;52.164;7.558;2023-09-08T01:15:56;19.60;99.90
17154;DHT22;8692;52.164;7.558;2023-09-08T01:18:26;19.60;99.90
17154;DHT22;8692;52.164;7.558;2023-09-08T01:21:12;19.50;99.90
17154;DHT22;8692;52.164;7.558;2023-09-08T01:23:59;19.50;99.90
17154;DHT22;8692;52.164;7.558;2023-09-08T01:26:39;19.50;99.90
17154;DHT22;8692;52.164;7.558;2023-09-08T01:29:09;19.40;99.90
17154;DHT22;8692;52.164;7.558;2023-09-08T01:31:37;19.40;99.90
17154;DHT22;8692;52.164;7.558;2023-09-08T01:34:06;19.40;99.90
17154;DHT22;8692;52.164;7.558;2023-09-08T01:36:36;19.40;99.90
17154;DHT22;8692;52.164;7.558;2023-09-08T01:39:05;19.40;99.90
17154;DHT22;8692;52.164;7.558;2023-09-08T01:41:35;19.40;99.90
17154;DHT22;8692;52.164;7.558;2023-09-08T01:44:03;19.30;99.90
17154;DHT22;8692;52.164;7.558;2023-09-08T01:46:35;19.30;99.90
17154;DHT22;8692;52.164;7.558;2023-09-08T01:49:03;19.30;99.90
17154;DHT22;8692;52.164;7.558;2023-09-08T01:51:31;19.30;99.90
17154;DHT22;8692;52.164;7.558;2023-09-08T01:54:00;19.30;99.90
17154;DHT22;8692;52.164;7.558;2023-09-08T01:56:28;19.30;99.90
17154;DHT22;8692;52.164;7.558;2023-09-08T01:58:57;19.30;99.90
17154;DHT22;8692;52.164;7.558;2023-09-08T02:01:26;19.20;99.90
17154;DHT22;8692;52.164;7.558;2023-09-08T02:03:54;19.20;99.90
17154;DHT22;8692;52.164;7.558;2023-09-08T02:06:22;19.10;99.90
17154;DHT22;8692;52.164;7.558;2023-09-08T02:08:52;19.20;99.90
17154;DHT22;8692;52.164;7.558;2023-09-08T02:11:20;19.10;99.90
17154;DHT22;8692;52.164;7.558;2023-09-08T02:13:48;19.10;99.90
17154;DHT22;8692;52.164;7.558;2023-09-08T02:16:18;19.00;99.90
17154;DHT22;8692;52.164;7.558;2023-09-08T02:18:50;19.00;99.90
17154;DHT22;8692;52.164;7.558;2023-09-08T02:21:18;18.90;99.90
17154;DHT22;8692;52.164;7.558;2023-09-08T02:23:46;18.90;99.90
17154;DHT22;8692;52.164;7.558;2023-09-08T02:26:14;18.90;99.90
17154;DHT22;8692;52.164;7.558;2023-09-08T02:28:43;18.90;99.90
17154;DHT22;8692;52.164;7.558;2023-09-08T02:31:12;18.80;99.90
17154;DHT22;8692;52.164;7.558;2023-09-08T02:33:41;18.80;99.90
17154;DHT22;8692;52.164;7.558;2023-09-08T02:36:10;18.80;99.90
17154;DHT22;8692;52.164;7.558;2023-09-08T02:38:39;18.80;99.90
17154;DHT22;8692;52.164;7.558;2023-09-08T02:41:08;18.70;99.90
17154;DHT22;8692;52.164;7.558;2023-09-08T02:43:36;18.70;99.90
17154;DHT22;8692;52.164;7.558;2023-09-08T02:46:04;18.70;99.90
17154;DHT22;8692;52.164;7.558;2023-09-08T02:48:32;18.70;99.90
17154;DHT22;8692;52.164;7.558;2023-09-08T02:51:02;18.70;99.90
17154;DHT22;8692;52.164;7.558;2023-09-08T02:53:30;18.60;99.90
17154;DHT22;8692;52.164;7.558;2023-09-08T02:55:58;18.60;99.90
17154;DHT22;8692;52.164;7.558;2023-09-08T02:58:26;18.60;99.90
17154;DHT22;8692;52.164;7.558;2023-09-08T03:00:54;18.60;99.90
17154;DHT22;8692;52.164;7.558;2023-09-08T03:03:23;18.60;99.90
17154;DHT22;8692;52.164;7.558;2023-09-08T03:05:54;18.50;99.90
17154;DHT22;8692;52.164;7.558;2023-09-08T03:08:25;18.50;99.90
17154;DHT22;8692;52.164;7.558;2023-09-08T03:10:55;18.40;99.90
17154;DHT22;8692;52.164;7.558;2023-09-08T03:13:24;18.40;99.90
17154;DHT22;8692;52.164;7.558;2023-09-08T03:15:52;18.40;99.90
17154;DHT22;8692;52.164;7.558;2023-09-08T03:18:20;18.30;99.90
17154;DHT22;8692;52.164;7.558;2023-09-08T03:20:49;18.30;99.90
17154;DHT22;8692;52.164;7.558;2023-09-08T03:23:17;18.20;99.90
17154;DHT22;8692;52.164;7.558;2023-09-08T03:25:48;18.20;99.90
17154;DHT22;8692;52.164;7.558;2023-09-08T03:28:17;18.20;99.90
17154;DHT22;8692;52.164;7.558;2023-09-08T03:30:45;18.10;99.90
17154;DHT22;8692;52.164;7.558;2023-09-08T03:33:13;18.10;99.90
17154;DHT22;8692;52.164;7.558;2023-09-08T03:35:41;18.10;99.90
17154;DHT22;8692;52.164;7.558;2023-09-08T03:38:09;18.10;99.90
17154;DHT22;8692;52.164;7.558;2023-09-08T03:40:37;18.10;99.90
17154;DHT22;8692;52.164;7.558;2023-09-08T03:43:07;18.10;99.90
17154;DHT22;8692;52.164;7.558;2023-09-08T03:45:35;18.00;99.90
17154;DHT22;8692;52.164;7.558;2023-09-08T03:48:03;18.00;99.90
17154;DHT22;8692;52.164;7.558;2023-09-08T03:50:31;17.90;99.90
17154;DHT22;8692;52.164;7.558;2023-09-08T03:52:59;17.90;99.90
17154;DHT22;8692;52.164;7.558;2023-09-08T03:55:27;17.90;99.90
17154;DHT22;8692;52.164;7.558;2023-09-08T03:57:55;17.80;99.90
17154;DHT22;8692;52.164;7.558;2023-09-08T04:00:25;17.80;99.90
17154;DHT22;8692;52.164;7.558;2023-09-08T04:02:53;17.80;99.90
17154;DHT22;8692;52.164;7.558;2023-09-08T04:05:21;17.80;99.90
17154;DHT22;8692;52.164;7.558;2023-09-08T04:07:49;17.70;99.90
17154;DHT22;8692;52.164;7.558;2023-09-08T04:10:17;17.70;99.90
17154;DHT22;8692;52.164;7.558;2023-09-08T04:12:45;17.70;99.90
17154;DHT22;8692;52.164;7.558;2023-09-08T04:15:13;17.70;99.90
17154;DHT22;8692;52.164;7.558;2023-09-08T04:17:43;17.70;99.90
17154;DHT22;8692;52.164;7.558;2023-09-08T04:20:11;17.60;99.90
17154;DHT22;8692;52.164;7.558;2023-09-08T04:22:41;17.60;99.90
17154;DHT22;8692;52.164;7.558;2023-09-08T04:25:09;17.60;99.90
17154;DHT22;8692;52.164;7.558;2023-09-08T04:27:38;17.60;99.90
17154;DHT22;8692;52.164;7.558;2023-09-08T04:30:08;17.60;99.90
17154;DHT22;8692;52.164;7.558;2023-09-08T04:32:36;17.60;99.90
17154;DHT22;8692;52.164;7.558;2023-09-08T04:35:07;17.50;99.90
17154;DHT22;8692;52.164;7.558;2023-09-08T04:37:35;17.50;99.90
17154;DHT22;8692;52.164;7.558;2023-09-08T04:40:05;17.50;99.90
17154;DHT22;8692;52.164;7.558;2023-09-08T04:42:34;17.50;99.90
17154;DHT22;8692;52.164;7.558;2023-09-08T04:45:03;17.50;99.90
17154;DHT22;8692;52.164;7.558;2023-09-08T04:47:32;17.50;99.90
17154;DHT22;8692;52.164;7.558;2023-09-08T04:50:00;17.40;99.90
17154;DHT22;8692;52.164;7.558;2023-09-08T04:52:30;17.40;99.90
17154;DHT22;8692;52.164;7.558;2023-09-08T04:55:00;17.40;99.90
17154;DHT22;8692;52.164;7.558;2023-09-08T04:57:29;17.40;99.90
17154;DHT22;8692;52.164;7.558;2023-09-08T04:59:58;17.30;99.90
17154;DHT22;8692;52.164;7.558;2023-09-08T05:02:27;17.30;99.90
17154;DHT22;8692;52.164;7.558;2023-09-08T05:04:56;17.30;99.90
17154;DHT22;8692;52.164;7.558;2023-09-08T05:07:24;17.30;99.90
17154;DHT22;8692;52.164;7.558;2023-09-08T05:09:53;17.20;99.90
17154;DHT22;8692;52.164;7.558;2023-09-08T05:12:26;17.20;99.90
17154;DHT22;8692;52.164;7.558;2023-09-08T05:14:54;17.20;99.90
17154;DHT22;8692;52.164;7.558;2023-09-08T05:17:27;17.20;99.90
17154;DHT22;8692;52.164;7.558;2023-09-08T05:19:55;17.10;99.90
17154;DHT22;8692;52.164;7.558;2023-09-08T05:22:23;17.10;99.90
17154;DHT22;8692;52.164;7.558;2023-09-08T05:24:55;17.10;99.90
17154;DHT22;8692;52.164;7.558;2023-09-08T05:27:24;17.10;99.90
17154;DHT22;8692;52.164;7.558;2023-09-08T05:29:52;17.10;99.90
17154;DHT22;8692;52.164;7.558;2023-09-08T05:32:21;17.10;99.90
17154;DHT22;8692;52.164;7.558;2023-09-08T05:34:49;17.20;99.90
17154;DHT22;8692;52.164;7.558;2023-09-08T05:37:17;17.20;99.90
17154;DHT22;8692;52.164;7.558;2023-09-08T05:39:45;17.20;99.90
17154;DHT22;8692;52.164;7.558;2023-09-08T05:42:14;17.20;99.90
17154;DHT22;8692;52.164;7.558;2023-09-08T05:44:42;17.20;99.90
17154;DHT22;8692;52.164;7.558;2023-09-08T05:47:12;17.30;99.90
17154;DHT22;8692;52.164;7.558;2023-09-08T05:49:40;17.30;99.90
17154;DHT22;8692;52.164;7.558;2023-09-08T05:52:08;17.30;99.90
17154;DHT22;8692;52.164;7.558;2023-09-08T05:54:37;17.40;99.90
17154;DHT22;8692;52.164;7.558;2023-09-08T05:57:06;17.40;99.90
17154;DHT22;8692;52.164;7.558;2023-09-08T05:59:36;17.50;99.90
17154;DHT22;8692;52.164;7.558;2023-09-08T06:02:04;17.50;99.90
17154;DHT22;8692;52.164;7.558;2023-09-08T06:04:32;17.60;99.90
17154;DHT22;8692;52.164;7.558;2023-09-08T06:07:01;17.60;99.90
17154;DHT22;8692;52.164;7.558;2023-09-08T06:09:31;17.70;99.90
17154;DHT22;8692;52.164;7.558;2023-09-08T06:11:59;17.70;99.90
17154;DHT22;8692;52.164;7.558;2023-09-08T06:14:29;17.80;99.90
17154;DHT22;8692;52.164;7.558;2023-09-08T06:16:58;17.90;99.90
17154;DHT22;8692;52.164;7.558;2023-09-08T06:19:26;17.90;99.90
17154;DHT22;8692;52.164;7.558;2023-09-08T06:21:54;18.00;99.90
17154;DHT22;8692;52.164;7.558;2023-09-08T06:24:22;18.00;99.90
17154;DHT22;8692;52.164;7.558;2023-09-08T06:26:51;18.10;99.90
17154;DHT22;8692;52.164;7.558;2023-09-08T06:29:19;18.20;99.90
17154;DHT22;8692;52.164;7.558;2023-09-08T06:31:47;18.20;99.90
17154;DHT22;8692;52.164;7.558;2023-09-08T06:34:17;18.20;99.90
17154;DHT22;8692;52.164;7.558;2023-09-08T06:36:48;18.30;99.90
17154;DHT22;8692;52.164;7.558;2023-09-08T06:39:16;18.40;99.90
17154;DHT22;8692;52.164;7.558;2023-09-08T06:41:44;18.50;99.90
17154;DHT22;8692;52.164;7.558;2023-09-08T06:44:14;18.50;99.90
17154;DHT22;8692;52.164;7.558;2023-09-08T06:46:42;18.60;99.90
17154;DHT22;8692;52.164;7.558;2023-09-08T06:49:10;18.60;99.90
17154;DHT22;8692;52.164;7.558;2023-09-08T06:51:40;18.70;99.90
17154;DHT22;8692;52.164;7.558;2023-09-08T06:54:08;18.70;99.90
17154;DHT22;8692;52.164;7.558;2023-09-08T06:56:39;18.70;99.90
17154;DHT22;8692;52.164;7.558;2023-09-08T06:59:08;18.80;99.90
17154;DHT22;8692;52.164;7.558;2023-09-08T07:01:36;18.90;99.90
17154;DHT22;8692;52.164;7.558;2023-09-08T07:04:05;18.90;99.90
17154;DHT22;8692;52.164;7.558;2023-09-08T07:06:33;19.00;99.90
17154;DHT22;8692;52.164;7.558;2023-09-08T07:09:04;19.00;99.90
17154;DHT22;8692;52.164;7.558;2023-09-08T07:11:32;19.10;99.90
17154;DHT22;8692;52.164;7.558;2023-09-08T07:14:00;19.20;99.90
17154;DHT22;8692;52.164;7.558;2023-09-08T07:16:28;19.30;99.90
17154;DHT22;8692;52.164;7.558;2023-09-08T07:18:57;19.40;99.90
17154;DHT22;8692;52.164;7.558;2023-09-08T07:21:27;19.50;99.90
17154;DHT22;8692;52.164;7.558;2023-09-08T07:23:55;19.60;99.90
17154;DHT22;8692;52.164;7.558;2023-09-08T07:26:24;19.60;99.90
17154;DHT22;8692;52.164;7.558;2023-09-08T07:28:52;19.70;99.90
17154;DHT22;8692;52.164;7.558;2023-09-08T07:31:20;19.80;99.90
17154;DHT22;8692;52.164;7.558;2023-09-08T07:33:49;19.80;99.90
17154;DHT22;8692;52.164;7.558;2023-09-08T07:36:17;20.00;99.90
17154;DHT22;8692;52.164;7.558;2023-09-08T07:38:46;20.00;99.90
17154;DHT22;8692;52.164;7.558;2023-09-08T07:41:14;20.10;99.90
17154;DHT22;8692;52.164;7.558;2023-09-08T07:43:44;20.10;99.90
17154;DHT22;8692;52.164;7.558;2023-09-08T07:46:15;20.30;99.90
17154;DHT22;8692;52.164;7.558;2023-09-08T07:48:43;20.30;99.90
17154;DHT22;8692;52.164;7.558;2023-09-08T07:51:11;20.40;99.90
17154;DHT22;8692;52.164;7.558;2023-09-08T07:53:39;20.50;99.90
17154;DHT22;8692;52.164;7.558;2023-09-08T07:56:07;20.60;99.90
17154;DHT22;8692;52.164;7.558;2023-09-08T07:58:36;20.70;99.90
17154;DHT22;8692;52.164;7.558;2023-09-08T08:01:06;20.80;99.90
17154;DHT22;8692;52.164;7.558;2023-09-08T08:03:34;20.80;99.90
17154;DHT22;8692;52.164;7.558;2023-09-08T08:06:04;20.90;99.90
17154;DHT22;8692;52.164;7.558;2023-09-08T08:08:32;21.00;99.90
17154;DHT22;8692;52.164;7.558;2023-09-08T08:11:09;21.10;99.90
17154;DHT22;8692;52.164;7.558;2023-09-08T08:13:37;21.20;99.90
17154;DHT22;8692;52.164;7.558;2023-09-08T08:16:07;21.30;99.90
17154;DHT22;8692;52.164;7.558;2023-09-08T08:18:35;21.40;99.90
17154;DHT22;8692;52.164;7.558;2023-09-08T08:21:04;21.50;99.90
17154;DHT22;8692;52.164;7.558;2023-09-08T08:23:32;21.60;99.90
17154;DHT22;8692;52.164;7.558;2023-09-08T08:26:01;21.70;99.90
17154;DHT22;8692;52.164;7.558;2023-09-08T08:28:29;21.80;99.90
17154;DHT22;8692;52.164;7.558;2023-09-08T08:30:57;21.90;99.90
17154;DHT22;8692;52.164;7.558;2023-09-08T08:33:26;22.00;99.90
17154;DHT22;8692;52.164;7.558;2023-09-08T08:35:55;22.10;99.90
17154;DHT22;8692;52.164;7.558;2023-09-08T08:38:24;22.30;99.90
17154;DHT22;8692;52.164;7.558;2023-09-08T08:40:52;22.40;99.90
17154;DHT22;8692;52.164;7.558;2023-09-08T08:43:21;22.50;99.90
17154;DHT22;8692;52.164;7.558;2023-09-08T08:45:50;22.60;99.90
17154;DHT22;8692;52.164;7.558;2023-09-08T08:48:20;22.70;99.90
17154;DHT22;8692;52.164;7.558;2023-09-08T08:50:53;22.80;99.90
17154;DHT22;8692;52.164;7.558;2023-09-08T08:53:21;22.90;99.90
17154;DHT22;8692;52.164;7.558;2023-09-08T08:55:51;23.00;99.90
17154;DHT22;8692;52.164;7.558;2023-09-08T08:58:20;23.10;99.90
17154;DHT22;8692;52.164;7.558;2023-09-08T09:00:53;23.30;99.90
17154;DHT22;8692;52.164;7.558;2023-09-08T09:03:23;23.40;99.90
17154;DHT22;8692;52.164;7.558;2023-09-08T09:05:53;23.50;99.90
17154;DHT22;8692;52.164;7.558;2023-09-08T09:08:22;23.60;99.90
17154;DHT22;8692;52.164;7.558;2023-09-08T09:10:52;23.80;99.90
17154;DHT22;8692;52.164;7.558;2023-09-08T09:13:20;23.90;99.90
17154;DHT22;8692;52.164;7.558;2023-09-08T09:15:49;24.00;99.90
17154;DHT22;8692;52.164;7.558;2023-09-08T09:18:17;24.10;99.90
17154;DHT22;8692;52.164;7.558;2023-09-08T09:20:55;24.20;99.90
17154;DHT22;8692;52.164;7.558;2023-09-08T09:23:30;24.30;99.90
17154;DHT22;8692;52.164;7.558;2023-09-08T09:25:58;24.40;99.90
17154;DHT22;8692;52.164;7.558;2023-09-08T09:28:28;24.60;99.90
17154;DHT22;8692;52.164;7.558;2023-09-08T09:30:57;24.80;99.90
17154;DHT22;8692;52.164;7.558;2023-09-08T09:33:28;24.90;99.90
17154;DHT22;8692;52.164;7.558;2023-09-08T09:35:57;25.10;99.90
17154;DHT22;8692;52.164;7.558;2023-09-08T09:38:27;25.20;99.90
17154;DHT22;8692;52.164;7.558;2023-09-08T09:40:55;25.30;99.90
17154;DHT22;8692;52.164;7.558;2023-09-08T09:43:23;25.40;99.90
17154;DHT22;8692;52.164;7.558;2023-09-08T09:45:51;25.60;99.90
17154;DHT22;8692;52.164;7.558;2023-09-08T09:48:21;25.70;99.90
17154;DHT22;8692;52.164;7.558;2023-09-08T09:50:49;25.80;99.90
17154;DHT22;8692;52.164;7.558;2023-09-08T09:53:20;25.90;99.90
17154;DHT22;8692;52.164;7.558;2023-09-08T09:55:48;26.10;99.90
17154;DHT22;8692;52.164;7.558;2023-09-08T09:58:16;26.30;99.90
17154;DHT22;8692;52.164;7.558;2023-09-08T10:00:45;26.50;99.90
17154;DHT22;8692;52.164;7.558;2023-09-08T10:03:15;26.60;99.90
17154;DHT22;8692;52.164;7.558;2023-09-08T10:05:45;26.70;99.90
17154;DHT22;8692;52.164;7.558;2023-09-08T10:08:15;26.80;99.90
17154;DHT22;8692;52.164;7.558;2023-09-08T10:10:45;27.00;99.90
17154;DHT22;8692;52.164;7.558;2023-09-08T10:13:23;27.00;99.90
17154;DHT22;8692;52.164;7.558;2023-09-08T10:15:52;27.10;99.90
17154;DHT22;8692;52.164;7.558;2023-09-08T10:18:24;27.30;99.90
17154;DHT22;8692;52.164;7.558;2023-09-08T10:20:53;27.40;99.50
17154;DHT22;8692;52.164;7.558;2023-09-08T10:23:40;27.50;98.80
17154;DHT22;8692;52.164;7.558;2023-09-08T10:26:11;27.50;97.30
17154;DHT22;8692;52.164;7.558;2023-09-08T10:28:39;27.60;98.40
17154;DHT22;8692;52.164;7.558;2023-09-08T10:31:08;27.70;97.80
17154;DHT22;8692;52.164;7.558;2023-09-08T10:33:41;27.90;95.70
17154;DHT22;8692;52.164;7.558;2023-09-08T10:36:09;28.00;93.90
17154;DHT22;8692;52.164;7.558;2023-09-08T10:38:37;28.10;93.30
17154;DHT22;8692;52.164;7.558;2023-09-08T10:41:27;28.10;92.80
17154;DHT22;8692;52.164;7.558;2023-09-08T10:44:02;28.30;92.60
17154;DHT22;8692;52.164;7.558;2023-09-08T10:46:32;28.30;92.70
17154;DHT22;8692;52.164;7.558;2023-09-08T10:49:03;28.50;91.90
17154;DHT22;8692;52.164;7.558;2023-09-08T10:51:31;28.50;90.30
17154;DHT22;8692;52.164;7.558;2023-09-08T10:53:59;28.60;92.40
17154;DHT22;8692;52.164;7.558;2023-09-08T10:56:46;28.70;93.10
17154;DHT22;8692;52.164;7.558;2023-09-08T10:59:15;28.80;90.00
17154;DHT22;8692;52.164;7.558;2023-09-08T11:01:43;28.90;91.40
17154;DHT22;8692;52.164;7.558;2023-09-08T11:04:11;29.00;90.60
17154;DHT22;8692;52.164;7.558;2023-09-08T11:06:41;29.10;89.60
17154;DHT22;8692;52.164;7.558;2023-09-08T11:09:10;29.20;87.90
17154;DHT22;8692;52.164;7.558;2023-09-08T11:11:39;29.30;85.10
17154;DHT22;8692;52.164;7.558;2023-09-08T11:14:07;29.30;85.20
17154;DHT22;8692;52.164;7.558;2023-09-08T11:16:35;29.40;85.70
17154;DHT22;8692;52.164;7.558;2023-09-08T11:19:04;29.40;80.80
17154;DHT22;8692;52.164;7.558;2023-09-08T11:21:32;29.50;80.00
17154;DHT22;8692;52.164;7.558;2023-09-08T11:24:02;29.50;81.60
17154;DHT22;8692;52.164;7.558;2023-09-08T11:26:33;29.60;81.40
17154;DHT22;8692;52.164;7.558;2023-09-08T11:29:02;29.60;80.60
17154;DHT22;8692;52.164;7.558;2023-09-08T11:31:31;29.70;82.80
17154;DHT22;8692;52.164;7.558;2023-09-08T11:33:59;29.80;82.50
17154;DHT22;8692;52.164;7.558;2023-09-08T11:36:27;29.90;81.90
17154;DHT22;8692;52.164;7.558;2023-09-08T11:38:56;30.00;78.80
17154;DHT22;8692;52.164;7.558;2023-09-08T11:41:25;30.10;78.70
17154;DHT22;8692;52.164;7.558;2023-09-08T11:43:53;30.10;77.30
17154;DHT22;8692;52.164;7.558;2023-09-08T11:46:22;30.20;78.00
17154;DHT22;8692;52.164;7.558;2023-09-08T11:48:52;30.20;81.90
17154;DHT22;8692;52.164;7.558;2023-09-08T11:51:22;30.20;79.20
17154;DHT22;8692;52.164;7.558;2023-09-08T11:53:50;30.30;77.50
17154;DHT22;8692;52.164;7.558;2023-09-08T11:56:19;30.30;79.80
17154;DHT22;8692;52.164;7.558;2023-09-08T11:58:47;30.30;76.70
17154;DHT22;8692;52.164;7.558;2023-09-08T12:01:15;30.30;76.90
17154;DHT22;8692;52.164;7.558;2023-09-08T12:03:55;30.40;78.00
17154;DHT22;8692;52.164;7.558;2023-09-08T12:06:25;30.50;76.10
17154;DHT22;8692;52.164;7.558;2023-09-08T12:08:54;30.60;73.00
17154;DHT22;8692;52.164;7.558;2023-09-08T12:11:23;30.60;73.80
17154;DHT22;8692;52.164;7.558;2023-09-08T12:13:51;30.60;73.30
17154;DHT22;8692;52.164;7.558;2023-09-08T12:16:27;30.60;73.90
17154;DHT22;8692;52.164;7.558;2023-09-08T12:18:56;30.60;74.00
17154;DHT22;8692;52.164;7.558;2023-09-08T12:21:25;30.60;74.20
17154;DHT22;8692;52.164;7.558;2023-09-08T12:23:53;30.60;71.10
17154;DHT22;8692;52.164;7.558;2023-09-08T12:26:25;30.70;73.30
17154;DHT22;8692;52.164;7.558;2023-09-08T12:28:53;30.70;72.60
17154;DHT22;8692;52.164;7.558;2023-09-08T12:31:22;30.80;71.90
17154;DHT22;8692;52.164;7.558;2023-09-08T12:33:50;30.80;70.20
17154;DHT22;8692;52.164;7.558;2023-09-08T12:36:23;30.80;69.10
17154;DHT22;8692;52.164;7.558;2023-09-08T12:38:51;30.90;70.10
17154;DHT22;8692;52.164;7.558;2023-09-08T12:41:19;31.00;67.80
17154;DHT22;8692;52.164;7.558;2023-09-08T12:43:48;31.00;67.10
17154;DHT22;8692;52.164;7.558;2023-09-08T12:46:17;31.00;67.00
17154;DHT22;8692;52.164;7.558;2023-09-08T12:48:46;31.00;67.10
17154;DHT22;8692;52.164;7.558;2023-09-08T12:51:14;31.10;66.90
17154;DHT22;8692;52.164;7.558;2023-09-08T12:53:43;31.10;65.50
17154;DHT22;8692;52.164;7.558;2023-09-08T12:56:11;31.10;66.00
17154;DHT22;8692;52.164;7.558;2023-09-08T12:58:39;31.10;66.60
17154;DHT22;8692;52.164;7.558;2023-09-08T13:01:07;31.10;65.00
17154;DHT22;8692;52.164;7.558;2023-09-08T13:03:35;31.10;64.90
17154;DHT22;8692;52.164;7.558;2023-09-08T13:06:03;31.20;64.20
17154;DHT22;8692;52.164;7.558;2023-09-08T13:08:31;31.20;65.20
17154;DHT22;8692;52.164;7.558;2023-09-08T13:11:01;31.20;65.30
17154;DHT22;8692;52.164;7.558;2023-09-08T13:13:30;31.30;66.20
17154;DHT22;8692;52.164;7.558;2023-09-08T13:15:58;31.30;67.30
17154;DHT22;8692;52.164;7.558;2023-09-08T13:18:26;31.30;65.40
17154;DHT22;8692;52.164;7.558;2023-09-08T13:20:54;31.40;63.40
17154;DHT22;8692;52.164;7.558;2023-09-08T13:23:22;31.50;64.10
17154;DHT22;8692;52.164;7.558;2023-09-08T13:25:50;31.50;64.20
17154;DHT22;8692;52.164;7.558;2023-09-08T13:28:19;31.50;64.90
17154;DHT22;8692;52.164;7.558;2023-09-08T13:30:47;31.50;63.50
17154;DHT22;8692;52.164;7.558;2023-09-08T13:33:15;31.60;63.60
17154;DHT22;8692;52.164;7.558;2023-09-08T13:35:43;31.60;63.30
17154;DHT22;8692;52.164;7.558;2023-09-08T13:38:11;31.60;64.70
17154;DHT22;8692;52.164;7.558;2023-09-08T13:40:39;31.60;65.10
17154;DHT22;8692;52.164;7.558;2023-09-08T13:43:08;31.60;63.80
17154;DHT22;8692;52.164;7.558;2023-09-08T13:45:39;31.70;64.10
17154;DHT22;8692;52.164;7.558;2023-09-08T13:48:09;31.80;63.60
17154;DHT22;8692;52.164;7.558;2023-09-08T13:50:38;31.90;64.30
17154;DHT22;8692;52.164;7.558;2023-09-08T13:53:10;32.00;65.00
17154;DHT22;8692;52.164;7.558;2023-09-08T13:55:40;32.10;65.90
17154;DHT22;8692;52.164;7.558;2023-09-08T13:58:10;32.20;65.50
17154;DHT22;8692;52.164;7.558;2023-09-08T14:00:41;32.20;64.30
17154;DHT22;8692;52.164;7.558;2023-09-08T14:03:12;32.30;64.00
17154;DHT22;8692;52.164;7.558;2023-09-08T14:05:46;32.30;65.40
17154;DHT22;8692;52.164;7.558;2023-09-08T14:08:20;32.40;63.70
17154;DHT22;8692;52.164;7.558;2023-09-08T14:10:52;32.40;63.80
17154;DHT22;8692;52.164;7.558;2023-09-08T14:13:31;32.40;63.40
17154;DHT22;8692;52.164;7.558;2023-09-08T14:16:01;32.50;64.50
17154;DHT22;8692;52.164;7.558;2023-09-08T14:18:29;32.50;63.80
17154;DHT22;8692;52.164;7.558;2023-09-08T14:20:57;32.50;60.30
17154;DHT22;8692;52.164;7.558;2023-09-08T14:23:25;32.50;62.70
17154;DHT22;8692;52.164;7.558;2023-09-08T14:25:53;32.50;62.90
17154;DHT22;8692;52.164;7.558;2023-09-08T14:28:21;32.60;62.90
17154;DHT22;8692;52.164;7.558;2023-09-08T14:30:49;32.70;64.10
17154;DHT22;8692;52.164;7.558;2023-09-08T14:33:19;32.70;63.20
17154;DHT22;8692;52.164;7.558;2023-09-08T14:35:47;32.70;64.00
17154;DHT22;8692;52.164;7.558;2023-09-08T14:38:18;32.70;63.60
17154;DHT22;8692;52.164;7.558;2023-09-08T14:40:54;32.70;62.80
17154;DHT22;8692;52.164;7.558;2023-09-08T14:43:23;32.70;62.70
17154;DHT22;8692;52.164;7.558;2023-09-08T14:45:51;32.70;62.30
17154;DHT22;8692;52.164;7.558;2023-09-08T14:48:20;32.80;62.60
17154;DHT22;8692;52.164;7.558;2023-09-08T14:50:49;32.80;63.00
17154;DHT22;8692;52.164;7.558;2023-09-08T14:53:17;32.90;62.60
17154;DHT22;8692;52.164;7.558;2023-09-08T14:55:45;32.90;61.90
17154;DHT22;8692;52.164;7.558;2023-09-08T14:58:15;32.90;61.20
17154;DHT22;8692;52.164;7.558;2023-09-08T15:00:44;32.90;61.30
17154;DHT22;8692;52.164;7.558;2023-09-08T15:03:13;32.90;61.90
17154;DHT22;8692;52.164;7.558;2023-09-08T15:05:42;32.80;61.50
17154;DHT22;8692;52.164;7.558;2023-09-08T15:08:10;32.90;62.20
17154;DHT22;8692;52.164;7.558;2023-09-08T15:10:39;32.90;62.30
17154;DHT22;8692;52.164;7.558;2023-09-08T15:13:07;32.90;61.40
17154;DHT22;8692;52.164;7.558;2023-09-08T15:15:35;32.90;61.50
17154;DHT22;8692;52.164;7.558;2023-09-08T15:18:04;32.90;61.50
17154;DHT22;8692;52.164;7.558;2023-09-08T15:20:32;33.00;61.60
17154;DHT22;8692;52.164;7.558;2023-09-08T15:23:01;33.00;61.80
17154;DHT22;8692;52.164;7.558;2023-09-08T15:25:32;33.00;60.90
17154;DHT22;8692;52.164;7.558;2023-09-08T15:28:00;33.00;61.70
17154;DHT22;8692;52.164;7.558;2023-09-08T15:30:28;33.00;61.10
17154;DHT22;8692;52.164;7.558;2023-09-08T15:32:56;33.00;61.00
17154;DHT22;8692;52.164;7.558;2023-09-08T15:35:24;33.10;61.20
17154;DHT22;8692;52.164;7.558;2023-09-08T15:37:52;33.10;61.80
17154;DHT22;8692;52.164;7.558;2023-09-08T15:40:21;33.10;62.40
17154;DHT22;8692;52.164;7.558;2023-09-08T15:42:49;33.10;62.00
17154;DHT22;8692;52.164;7.558;2023-09-08T15:45:18;33.00;61.00
17154;DHT22;8692;52.164;7.558;2023-09-08T15:47:47;33.00;61.10
17154;DHT22;8692;52.164;7.558;2023-09-08T15:50:16;33.00;60.80
17154;DHT22;8692;52.164;7.558;2023-09-08T15:52:43;32.90;61.50
17154;DHT22;8692;52.164;7.558;2023-09-08T15:55:11;32.80;61.50
17154;DHT22;8692;52.164;7.558;2023-09-08T15:57:41;32.70;64.20